Time;durP1;ratioP1;P1;durP2;ratioP2;P2;SDS_P1;SDS_P2;PMS_P1;PMS_P2;Temp;Humidity;BMP_temperature;BMP_pressure;BME280_temperature;BME280_humidity;BME280_pressure;Samples;Min_cycle;Max_cycle;Signal;HPM_P1;HPM_P2
2022/09/02 00:01:16;;;;;;;2.25;0.90;;;18.40;78.20;;;;;;5032647;28;20018;-81
2022/09/02 00:03:43;;;;;;;1.70;0.98;;;18.40;77.80;;;;;;5032721;28;20501;-82
2022/09/02 00:06:12;;;;;;;2.15;1.08;;;18.40;77.60;;;;;;5026122;28;20072;-81
2022/09/02 00:08:39;;;;;;;8.43;1.50;;;18.40;77.90;;;;;;5041084;28;20053;-82
2022/09/02 00:11:06;;;;;;;2.47;1.30;;;18.40;77.10;;;;;;5044877;28;20549;-81
2022/09/02 00:13:34;;;;;;;2.22;1.20;;;18.40;78.20;;;;;;5037647;28;20093;-82
2022/09/02 00:16:01;;;;;;;3.78;1.20;;;18.40;77.30;;;;;;5041912;28;20025;-82
2022/09/02 00:18:32;;;;;;;1.77;1.02;;;18.40;77.90;;;;;;5028502;28;20026;-82
2022/09/02 00:20:58;;;;;;;6.38;1.30;;;18.40;77.90;;;;;;5041470;28;20478;-82
2022/09/02 00:23:24;;;;;;;1.38;1.10;;;18.40;78.10;;;;;;5025549;28;20435;-82
2022/09/02 00:25:50;;;;;;;2.53;1.15;;;18.40;78.30;;;;;;5020663;28;20030;-82
2022/09/02 00:28:16;;;;;;;1.05;0.82;;;18.30;78.70;;;;;;5039668;28;20508;-82
2022/09/02 00:30:43;;;;;;;2.38;1.48;;;18.30;78.30;;;;;;5026467;28;20483;-81
2022/09/02 00:33:10;;;;;;;2.33;1.20;;;18.30;78.20;;;;;;5036722;28;20029;-82
2022/09/02 00:35:36;;;;;;;2.92;0.80;;;18.30;78.00;;;;;;5024620;28;20033;-80
2022/09/02 00:38:03;;;;;;;1.73;1.00;;;18.30;77.30;;;;;;5024768;28;20033;-81
2022/09/02 00:40:29;;;;;;;1.25;1.02;;;18.20;77.30;;;;;;5048801;28;20521;-81
2022/09/02 00:42:55;;;;;;;1.88;1.13;;;18.20;78.00;;;;;;5023373;28;20490;-82
2022/09/02 00:45:22;;;;;;;1.95;1.08;;;18.20;78.30;;;;;;5034579;28;20029;-81
2022/09/02 00:47:51;;;;;;;3.25;1.02;;;18.10;78.30;;;;;;5034226;28;20030;-82
2022/09/02 00:50:21;;;;;;;1.83;0.80;;;18.20;78.80;;;;;;5029355;28;20034;-81
2022/09/02 00:52:52;;;;;;;1.75;0.90;;;18.20;78.70;;;;;;5033827;28;20474;-81
2022/09/02 00:55:30;;;;;;;2.22;1.35;;;18.20;78.60;;;;;;5022832;28;20038;-81
2022/09/02 00:58:02;;;;;;;1.70;1.00;;;18.20;77.80;;;;;;5027599;28;20033;-82
2022/09/02 01:00:41;;;;;;;0.65;0.65;;;18.20;78.30;;;;;;5034741;28;20112;-81
2022/09/02 01:03:11;;;;;;;3.55;0.88;;;18.30;78.30;;;;;;5033064;28;20036;-82
2022/09/02 01:05:44;;;;;;;1.35;1.02;;;18.10;78.80;;;;;;5035725;28;20540;-82
2022/09/02 01:08:18;;;;;;;1.40;1.15;;;18.20;78.80;;;;;;5033748;28;20091;-82
2022/09/02 01:10:45;;;;;;;2.55;1.17;;;18.00;79.00;;;;;;5032314;28;20429;-82
2022/09/02 01:13:14;;;;;;;3.17;0.90;;;18.00;78.50;;;;;;5034588;28;20414;-81
2022/09/02 01:15:44;;;;;;;1.90;1.38;;;18.10;79.80;;;;;;5030927;28;20052;-79
2022/09/02 01:18:17;;;;;;;3.75;1.20;;;18.10;79.60;;;;;;5032117;28;20056;-82
2022/09/02 01:20:43;;;;;;;2.33;1.20;;;18.10;78.40;;;;;;5036699;28;20021;-80
2022/09/02 01:23:09;;;;;;;2.00;1.23;;;18.20;78.40;;;;;;5027418;28;20120;-81
2022/09/02 01:25:36;;;;;;;1.55;1.20;;;18.10;78.70;;;;;;5043847;28;20039;-82
2022/09/02 01:28:08;;;;;;;4.47;2.42;;;18.20;78.70;;;;;;5038618;28;20064;-81
2022/09/02 01:30:36;;;;;;;2.03;1.40;;;18.20;79.00;;;;;;5040512;28;20025;-81
2022/09/02 01:33:02;;;;;;;1.60;1.20;;;18.10;78.40;;;;;;5034168;28;20386;-80
2022/09/02 01:35:28;;;;;;;1.88;1.10;;;18.20;78.60;;;;;;5042672;28;20022;-81
2022/09/02 01:37:56;;;;;;;2.80;1.00;;;18.20;78.60;;;;;;5039476;28;20022;-81
2022/09/02 01:40:24;;;;;;;4.32;1.88;;;18.10;79.20;;;;;;5032445;28;20617;-82
2022/09/02 01:42:57;;;;;;;3.03;1.20;;;18.10;79.10;;;;;;5042865;28;20458;-82
2022/09/02 01:45:23;;;;;;;1.40;1.02;;;18.10;79.00;;;;;;5050941;28;20122;-82
2022/09/02 01:47:50;;;;;;;2.08;1.10;;;18.00;78.60;;;;;;5028415;28;20072;-82
2022/09/02 01:50:16;;;;;;;2.00;1.45;;;18.10;79.00;;;;;;5044160;28;20764;-82
2022/09/02 01:52:42;;;;;;;1.77;1.10;;;18.00;79.10;;;;;;5033979;28;20426;-82
2022/09/02 01:55:09;;;;;;;4.47;1.20;;;18.00;79.40;;;;;;5034835;28;20029;-81
2022/09/02 01:57:34;;;;;;;1.73;1.02;;;17.90;78.90;;;;;;5028857;28;20021;-82
2022/09/02 02:00:00;;;;;;;1.80;1.25;;;17.90;79.10;;;;;;5034384;28;20030;-80
2022/09/02 02:02:27;;;;;;;2.15;1.10;;;17.90;79.20;;;;;;5043115;28;20028;-82
2022/09/02 02:04:53;;;;;;;0.70;0.70;;;17.90;78.70;;;;;;5014934;28;20042;-82
2022/09/02 02:07:21;;;;;;;13.70;1.10;;;17.80;79.00;;;;;;5055882;28;20398;-81
2022/09/02 02:09:47;;;;;;;1.00;0.90;;;17.90;79.80;;;;;;5041806;28;20029;-81
2022/09/02 02:12:14;;;;;;;2.30;1.05;;;17.90;79.40;;;;;;5027320;28;20026;-81
2022/09/02 02:14:40;;;;;;;1.63;1.10;;;17.90;79.20;;;;;;5038416;28;20144;-81
2022/09/02 02:17:06;;;;;;;2.47;1.20;;;17.80;79.60;;;;;;5033070;28;20044;-81
2022/09/02 02:19:33;;;;;;;3.40;1.45;;;17.70;79.80;;;;;;5043541;28;20520;-81
2022/09/02 02:21:59;;;;;;;1.95;1.02;;;17.60;79.40;;;;;;5032776;28;20475;-82
2022/09/02 02:24:25;;;;;;;5.88;1.10;;;17.60;80.10;;;;;;5034971;28;20049;-82
2022/09/02 02:26:51;;;;;;;1.48;0.90;;;17.50;79.50;;;;;;5030852;28;20394;-81
2022/09/02 02:29:17;;;;;;;1.23;0.93;;;17.50;80.10;;;;;;5035686;28;20493;-82
2022/09/02 02:31:44;;;;;;;1.60;1.23;;;17.50;79.20;;;;;;5035494;28;20060;-80
2022/09/02 02:34:10;;;;;;;5.88;1.20;;;17.60;80.00;;;;;;5036167;28;20030;-81
2022/09/02 02:36:38;;;;;;;1.33;1.02;;;17.70;79.50;;;;;;5035886;28;20116;-81
2022/09/02 02:39:06;;;;;;;4.80;1.30;;;17.70;79.60;;;;;;5034030;28;20162;-81
2022/09/02 02:41:32;;;;;;;1.42;1.00;;;17.70;79.00;;;;;;5047653;28;20018;-81
2022/09/02 02:43:58;;;;;;;1.13;1.02;;;17.60;79.30;;;;;;5046207;28;20505;-81
2022/09/02 02:46:25;;;;;;;1.92;1.13;;;17.60;80.10;;;;;;5035537;28;20025;-80
2022/09/02 02:48:50;;;;;;;1.88;0.90;;;17.60;79.10;;;;;;5036947;28;20051;-81
2022/09/02 02:51:16;;;;;;;2.03;0.95;;;17.50;79.50;;;;;;5049836;28;20448;-81
2022/09/02 02:53:42;;;;;;;1.83;0.93;;;17.50;80.60;;;;;;5028770;28;20053;-80
2022/09/02 02:56:08;;;;;;;1.60;1.15;;;17.50;79.90;;;;;;5038495;28;20036;-82
2022/09/02 02:58:34;;;;;;;1.98;1.20;;;17.60;80.10;;;;;;5045392;28;20020;-81
2022/09/02 03:01:01;;;;;;;4.22;1.60;;;17.50;80.20;;;;;;5036573;28;20025;-80
2022/09/02 03:03:27;;;;;;;2.53;0.80;;;17.60;80.60;;;;;;5031071;28;20263;-81
2022/09/02 03:05:53;;;;;;;1.63;1.10;;;17.60;80.10;;;;;;5030127;28;20037;-81
2022/09/02 03:08:21;;;;;;;3.90;1.73;;;17.60;79.80;;;;;;5032657;28;20033;-81
2022/09/02 03:10:51;;;;;;;1.02;0.95;;;17.70;79.80;;;;;;5039260;28;20041;-82
2022/09/02 03:13:17;;;;;;;3.10;1.10;;;17.70;80.00;;;;;;5033473;28;20037;-82
2022/09/02 03:15:43;;;;;;;1.20;0.88;;;17.50;79.80;;;;;;5062812;28;20095;-82
2022/09/02 03:18:09;;;;;;;2.40;1.08;;;17.70;80.40;;;;;;5030527;28;20030;-81
2022/09/02 03:20:35;;;;;;;1.65;0.85;;;17.50;80.80;;;;;;5028366;28;20029;-82
2022/09/02 03:23:02;;;;;;;1.75;1.00;;;17.50;81.00;;;;;;5037502;28;20022;-81
2022/09/02 03:25:30;;;;;;;4.88;1.10;;;17.60;81.20;;;;;;5039560;28;20040;-82
2022/09/02 03:27:56;;;;;;;2.45;1.00;;;17.50;81.10;;;;;;5034362;28;20100;-82
2022/09/02 03:30:25;;;;;;;2.28;1.05;;;17.50;81.10;;;;;;5043704;28;20025;-81
2022/09/02 03:32:55;;;;;;;6.20;1.13;;;17.50;81.60;;;;;;5036549;28;20033;-81
2022/09/02 03:35:22;;;;;;;2.05;1.00;;;17.50;81.80;;;;;;5026700;28;20121;-81
2022/09/02 03:37:49;;;;;;;2.65;1.40;;;17.30;80.00;;;;;;5045650;28;20064;-81
2022/09/02 03:40:19;;;;;;;1.88;1.27;;;17.30;81.30;;;;;;5037791;28;20044;-81
2022/09/02 03:42:45;;;;;;;2.88;1.35;;;17.40;80.80;;;;;;5043678;28;20028;-82
2022/09/02 03:45:11;;;;;;;2.08;1.05;;;17.40;80.90;;;;;;5041534;28;20028;-82
2022/09/02 03:47:42;;;;;;;0.95;0.85;;;17.30;81.40;;;;;;5025118;28;20021;-82
2022/09/02 03:50:08;;;;;;;3.15;1.50;;;17.30;79.70;;;;;;5056817;28;20032;-82
2022/09/02 03:52:35;;;;;;;1.48;0.95;;;17.30;80.60;;;;;;5035910;28;20025;-82
2022/09/02 03:55:03;;;;;;;1.10;0.90;;;17.30;80.20;;;;;;5036787;28;20025;-81
2022/09/02 03:57:29;;;;;;;1.42;1.00;;;17.30;80.90;;;;;;5036921;28;20030;-82
2022/09/02 03:59:55;;;;;;;1.70;1.10;;;17.20;79.80;;;;;;5037221;28;20021;-82
2022/09/02 04:02:21;;;;;;;1.45;1.10;;;17.10;80.60;;;;;;5033727;28;20556;-82
2022/09/02 04:04:47;;;;;;;1.20;0.95;;;17.10;81.20;;;;;;5038551;28;20024;-81
2022/09/02 04:07:13;;;;;;;2.70;1.17;;;17.20;80.80;;;;;;5029749;28;20087;-82
2022/09/02 04:09:39;;;;;;;1.92;0.93;;;17.30;81.40;;;;;;5030315;28;20386;-81
2022/09/02 04:12:05;;;;;;;0.95;0.80;;;17.30;81.20;;;;;;5029035;28;20029;-81
2022/09/02 04:14:32;;;;;;;1.27;0.60;;;17.30;81.90;;;;;;5036733;28;20432;-79
2022/09/02 04:16:57;;;;;;;3.42;0.90;;;17.30;82.00;;;;;;5044728;28;20489;-82
2022/09/02 04:19:23;;;;;;;1.45;1.02;;;17.40;81.40;;;;;;5041165;28;20112;-81
2022/09/02 04:21:49;;;;;;;1.50;0.85;;;17.40;80.80;;;;;;5038563;28;20028;-80
2022/09/02 04:24:15;;;;;;;2.53;0.82;;;17.30;81.20;;;;;;5040709;28;20375;-82
2022/09/02 04:26:41;;;;;;;1.40;0.80;;;17.30;81.50;;;;;;5037266;28;20032;-81
2022/09/02 04:29:07;;;;;;;1.27;0.50;;;17.30;81.20;;;;;;5031778;28;20033;-82
2022/09/02 04:31:34;;;;;;;2.50;0.90;;;17.30;81.00;;;;;;5032475;28;20053;-82
2022/09/02 04:34:00;;;;;;;1.52;0.90;;;17.30;82.00;;;;;;5024764;28;20110;-82
2022/09/02 04:36:26;;;;;;;1.33;0.90;;;17.20;81.60;;;;;;5033095;28;20490;-81
2022/09/02 04:38:53;;;;;;;2.25;1.10;;;17.20;81.30;;;;;;5057116;28;20025;-80
2022/09/02 04:41:23;;;;;;;1.67;1.45;;;17.20;81.20;;;;;;5041541;28;20036;-80
2022/09/02 04:43:51;;;;;;;4.18;1.30;;;17.10;80.60;;;;;;5028204;28;20025;-81
2022/09/02 04:46:17;;;;;;;1.45;1.13;;;17.20;81.40;;;;;;5019690;28;20034;-81
2022/09/02 04:48:44;;;;;;;1.80;0.80;;;17.30;81.60;;;;;;5033657;28;20017;-80
2022/09/02 04:51:20;;;;;;;1.30;1.05;;;17.30;81.20;;;;;;5024640;28;20033;-82
2022/09/02 04:53:46;;;;;;;1.30;1.00;;;17.30;81.40;;;;;;5029576;28;20036;-80
2022/09/02 04:56:15;;;;;;;3.22;1.00;;;17.20;81.30;;;;;;5048473;28;20026;-82
2022/09/02 04:58:43;;;;;;;1.83;0.80;;;17.10;81.10;;;;;;5030168;28;20055;-81
2022/09/02 05:01:15;;;;;;;4.53;1.00;;;17.20;81.90;;;;;;5030170;28;20025;-81
2022/09/02 05:03:43;;;;;;;2.65;0.80;;;17.20;82.10;;;;;;5027351;28;20448;-81
2022/09/02 05:06:12;;;;;;;2.60;1.75;;;17.20;82.10;;;;;;5026777;28;20049;-82
2022/09/02 05:08:41;;;;;;;1.92;1.00;;;17.20;82.50;;;;;;5025965;28;20025;-81
2022/09/02 05:11:13;;;;;;;3.42;0.95;;;17.20;82.70;;;;;;5028431;28;20445;-81
2022/09/02 05:13:40;;;;;;;1.65;1.00;;;17.20;82.40;;;;;;5034032;28;20103;-81
2022/09/02 05:16:06;;;;;;;4.28;1.42;;;17.10;82.80;;;;;;5033715;28;20095;-82
2022/09/02 05:18:32;;;;;;;2.28;0.98;;;17.20;83.10;;;;;;5035519;28;20481;-82
2022/09/02 05:20:58;;;;;;;1.25;0.95;;;17.00;84.00;;;;;;5036089;28;20029;-81
2022/09/02 05:23:24;;;;;;;1.17;0.88;;;17.10;83.00;;;;;;5028962;28;20455;-82
2022/09/02 05:25:50;;;;;;;1.05;0.85;;;17.20;82.80;;;;;;5035699;28;20067;-81
2022/09/02 05:28:16;;;;;;;3.72;1.00;;;17.20;82.80;;;;;;5046577;28;20025;-81
2022/09/02 05:30:42;;;;;;;1.38;0.80;;;17.10;82.90;;;;;;5028917;28;20375;-81
2022/09/02 05:33:09;;;;;;;1.88;1.17;;;17.20;82.50;;;;;;5024380;28;20044;-81
2022/09/02 05:35:40;;;;;;;1.60;0.93;;;17.30;82.60;;;;;;5022890;28;20272;-82
2022/09/02 05:38:07;;;;;;;1.17;0.90;;;17.30;82.90;;;;;;5040833;28;20115;-81
2022/09/02 05:40:33;;;;;;;2.30;1.20;;;17.30;82.20;;;;;;5031862;28;20040;-82
2022/09/02 05:42:59;;;;;;;1.77;1.20;;;17.20;82.70;;;;;;5027084;28;20018;-81
2022/09/02 05:45:24;;;;;;;1.83;0.95;;;17.10;82.90;;;;;;5023726;28;20378;-80
2022/09/02 05:47:50;;;;;;;1.15;0.90;;;17.00;82.00;;;;;;5028290;28;20412;-82
2022/09/02 05:50:16;;;;;;;5.22;1.02;;;17.00;82.50;;;;;;5031363;28;20045;-81
2022/09/02 05:52:42;;;;;;;1.77;1.13;;;17.10;83.70;;;;;;5043548;28;20117;-81
2022/09/02 05:55:09;;;;;;;5.25;1.30;;;17.10;83.00;;;;;;5025676;28;20113;-82
2022/09/02 05:57:35;;;;;;;2.92;1.35;;;17.10;83.60;;;;;;5036270;28;20423;-81
2022/09/02 06:00:04;;;;;;;1.63;0.98;;;17.10;83.80;;;;;;5032363;28;20025;-80
2022/09/02 06:02:30;;;;;;;1.60;0.90;;;17.00;82.70;;;;;;5033543;28;20390;-81
2022/09/02 06:04:55;;;;;;;2.15;1.05;;;17.00;84.00;;;;;;5027713;28;20025;-80
2022/09/02 06:07:23;;;;;;;6.03;1.58;;;17.00;83.70;;;;;;5043412;28;20033;-82
2022/09/02 06:09:49;;;;;;;1.67;1.13;;;17.10;84.60;;;;;;5038191;28;20029;-82
2022/09/02 06:12:19;;;;;;;2.38;0.93;;;17.20;84.40;;;;;;5038407;28;20175;-81
2022/09/02 06:14:46;;;;;;;1.33;1.05;;;17.30;83.90;;;;;;5023750;28;20034;-82
2022/09/02 06:17:12;;;;;;;1.33;1.00;;;17.30;83.20;;;;;;5033827;28;20041;-81
2022/09/02 06:19:38;;;;;;;3.22;1.52;;;17.20;82.90;;;;;;5036201;28;20092;-82
2022/09/02 06:22:04;;;;;;;1.52;1.10;;;17.30;83.70;;;;;;5028055;28;20076;-80
2022/09/02 06:24:30;;;;;;;2.80;1.45;;;17.50;83.30;;;;;;5035411;28;20054;-81
2022/09/02 06:26:56;;;;;;;2.40;1.10;;;17.40;84.50;;;;;;5038274;28;20029;-82
2022/09/02 06:29:24;;;;;;;1.33;1.10;;;17.50;84.50;;;;;;5038162;28;20029;-81
2022/09/02 06:31:50;;;;;;;5.00;1.25;;;17.40;83.10;;;;;;5038615;28;20029;-81
2022/09/02 06:34:18;;;;;;;4.03;1.27;;;17.50;84.10;;;;;;5038212;28;20036;-81
2022/09/02 06:36:45;;;;;;;1.67;1.20;;;17.60;83.50;;;;;;5034904;28;20037;-79
2022/09/02 06:39:14;;;;;;;1.92;1.00;;;17.70;82.80;;;;;;5039974;28;20345;-80
2022/09/02 06:41:41;;;;;;;1.48;1.00;;;17.80;82.70;;;;;;5045233;28;20017;-82
2022/09/02 06:44:09;;;;;;;1.95;1.15;;;17.90;82.80;;;;;;5032947;28;20029;-82
2022/09/02 06:46:38;;;;;;;2.08;1.20;;;18.00;82.80;;;;;;5060526;28;20026;-81
2022/09/02 06:49:05;;;;;;;2.05;0.95;;;18.00;83.50;;;;;;5031435;28;20556;-82
2022/09/02 06:51:36;;;;;;;2.95;1.02;;;18.00;84.30;;;;;;5030405;28;20040;-82
2022/09/02 06:54:03;;;;;;;1.58;1.38;;;18.00;82.80;;;;;;5035932;28;20021;-82
2022/09/02 06:56:29;;;;;;;2.15;1.30;;;17.90;83.40;;;;;;5033853;28;20022;-82
2022/09/02 06:58:56;;;;;;;1.38;1.08;;;17.90;83.50;;;;;;5033734;28;20021;-81
2022/09/02 07:01:28;;;;;;;2.92;1.27;;;18.10;83.00;;;;;;5032819;28;20083;-80
2022/09/02 07:06:44;;;;;;;1.58;1.02;;;18.00;84.40;;;;;;5031635;28;20037;-82
2022/09/02 07:09:12;;;;;;;1.48;0.90;;;18.20;83.80;;;;;;5035605;28;20052;-80
2022/09/02 07:11:38;;;;;;;1.88;1.17;;;18.20;82.40;;;;;;5035155;28;20041;-82
2022/09/02 07:14:05;;;;;;;4.90;1.40;;;18.30;82.80;;;;;;5035924;28;20494;-80
2022/09/02 07:16:41;;;;;;;1.55;0.90;;;18.30;82.50;;;;;;5027611;28;20627;-80
2022/09/02 07:19:07;;;;;;;3.72;1.35;;;18.40;82.50;;;;;;5035432;28;20038;-82
2022/09/02 07:21:33;;;;;;;1.77;1.00;;;18.30;82.90;;;;;;5031536;28;20394;-78
2022/09/02 07:24:00;;;;;;;1.77;1.05;;;18.40;83.00;;;;;;5038294;28;20455;-81
2022/09/02 07:26:27;;;;;;;3.13;1.30;;;18.50;82.80;;;;;;5041383;28;20170;-82
2022/09/02 07:28:54;;;;;;;2.15;1.10;;;18.60;82.50;;;;;;5038036;28;20456;-79
2022/09/02 07:31:22;;;;;;;1.38;0.98;;;18.70;82.20;;;;;;5035157;28;20038;-78
2022/09/02 07:33:47;;;;;;;1.45;1.02;;;18.60;81.80;;;;;;5044801;28;20029;-79
2022/09/02 07:36:13;;;;;;;2.92;1.40;;;18.80;81.80;;;;;;5044344;28;20047;-78
2022/09/02 07:38:41;;;;;;;4.43;1.75;;;18.90;82.30;;;;;;5065053;28;20025;-78
2022/09/02 07:41:08;;;;;;;2.55;1.48;;;18.80;81.40;;;;;;5044913;28;20422;-79
2022/09/02 07:43:36;;;;;;;2.58;1.08;;;18.90;81.40;;;;;;5041222;28;20021;-78
2022/09/02 07:46:04;;;;;;;3.47;1.38;;;19.00;81.60;;;;;;5025948;28;20041;-78
2022/09/02 07:48:30;;;;;;;2.38;1.40;;;19.00;81.60;;;;;;5042174;28;20113;-78
2022/09/02 07:50:57;;;;;;;1.38;1.13;;;19.20;80.70;;;;;;5044674;28;20025;-78
2022/09/02 07:53:24;;;;;;;1.58;1.20;;;19.20;80.90;;;;;;5045004;28;20129;-79
2022/09/02 07:55:50;;;;;;;4.10;1.55;;;19.20;80.80;;;;;;5045733;28;20021;-79
2022/09/02 07:58:19;;;;;;;1.60;1.30;;;19.30;81.00;;;;;;5044374;28;20279;-78
2022/09/02 08:00:46;;;;;;;2.53;1.00;;;19.30;81.00;;;;;;5058844;28;20140;-78
2022/09/02 08:03:13;;;;;;;2.45;1.60;;;19.40;80.50;;;;;;5037678;28;20029;-78
2022/09/02 08:05:40;;;;;;;2.88;1.10;;;19.40;80.40;;;;;;5046012;28;20021;-78
2022/09/02 08:08:07;;;;;;;2.90;1.10;;;19.40;80.80;;;;;;5038469;28;20143;-78
2022/09/02 08:10:34;;;;;;;2.20;1.15;;;19.40;81.60;;;;;;5034271;28;20659;-78
2022/09/02 08:13:00;;;;;;;2.58;1.08;;;19.50;80.70;;;;;;5033813;28;20026;-78
2022/09/02 08:15:27;;;;;;;1.27;1.10;;;19.50;81.40;;;;;;5038536;28;20022;-78
2022/09/02 08:17:54;;;;;;;3.78;1.38;;;19.50;80.90;;;;;;5038457;28;20026;-78
2022/09/02 08:20:20;;;;;;;1.92;1.40;;;19.50;81.00;;;;;;5037312;28;20617;-78
2022/09/02 08:22:46;;;;;;;2.25;1.50;;;19.60;82.20;;;;;;5041643;28;20040;-78
2022/09/02 08:25:12;;;;;;;1.80;1.33;;;19.70;81.20;;;;;;5045833;28;20397;-78
2022/09/02 08:27:40;;;;;;;3.88;1.38;;;19.80;80.80;;;;;;5050811;28;20037;-79
2022/09/02 08:30:10;;;;;;;2.20;1.23;;;19.90;80.60;;;;;;5043996;28;20060;-78
2022/09/02 08:32:37;;;;;;;4.78;1.63;;;20.10;80.20;;;;;;5056884;28;20580;-78
2022/09/02 08:35:05;;;;;;;1.65;1.15;;;20.10;78.90;;;;;;5043112;28;20048;-78
2022/09/02 08:37:32;;;;;;;1.70;1.40;;;20.20;79.40;;;;;;5043251;28;20022;-78
2022/09/02 08:40:02;;;;;;;2.80;1.33;;;20.20;78.80;;;;;;5042913;28;20030;-79
2022/09/02 08:42:38;;;;;;;1.25;1.10;;;20.30;79.50;;;;;;5035853;28;20025;-79
2022/09/02 08:45:27;;;;;;;4.18;1.42;;;20.30;79.00;;;;;;5041503;28;20089;-78
2022/09/02 08:48:15;;;;;;;5.80;1.77;;;20.30;78.80;;;;;;5035589;28;20120;-79
2022/09/02 08:50:43;;;;;;;1.48;1.10;;;20.30;79.00;;;;;;5047317;28;20021;-78
2022/09/02 08:53:29;;;;;;;2.38;1.15;;;20.30;79.40;;;;;;5033120;28;20033;-78
2022/09/02 08:55:57;;;;;;;2.45;1.45;;;20.40;79.10;;;;;;5047583;28;20022;-78
2022/09/02 08:58:30;;;;;;;2.03;1.40;;;20.40;78.60;;;;;;5036802;28;20040;-78
2022/09/02 09:01:08;;;;;;;1.88;1.17;;;20.50;77.90;;;;;;5033707;28;20032;-79
2022/09/02 09:03:59;;;;;;;3.30;1.45;;;20.60;78.00;;;;;;5030899;28;20045;-78
2022/09/02 09:06:40;;;;;;;2.35;1.45;;;20.70;77.60;;;;;;5046415;28;20093;-78
2022/09/02 09:09:38;;;;;;;2.10;1.23;;;20.80;77.70;;;;;;5027495;28;20037;-78
2022/09/02 09:12:28;;;;;;;2.47;1.17;;;20.90;77.40;;;;;;5013075;28;20541;-78
2022/09/02 09:15:10;;;;;;;1.52;0.90;;;20.90;77.40;;;;;;5035966;28;20223;-79
2022/09/02 09:17:36;;;;;;;2.08;1.27;;;20.90;77.10;;;;;;5041968;28;20034;-78
2022/09/02 09:20:18;;;;;;;1.48;1.10;;;21.10;76.90;;;;;;5036553;28;20029;-78
2022/09/02 09:22:47;;;;;;;1.75;1.25;;;21.10;76.10;;;;;;5029691;28;20025;-79
2022/09/02 09:25:15;;;;;;;1.85;1.17;;;21.20;77.30;;;;;;5033853;28;20057;-78
2022/09/02 09:27:44;;;;;;;4.00;1.52;;;21.20;76.60;;;;;;5039111;28;20434;-78
2022/09/02 09:30:12;;;;;;;1.42;1.02;;;21.30;74.40;;;;;;5039147;28;20033;-78
2022/09/02 09:32:53;;;;;;;4.22;1.17;;;21.30;75.20;;;;;;5035072;28;20512;-79
2022/09/02 09:35:21;;;;;;;6.18;1.33;;;21.40;75.60;;;;;;5033078;28;20030;-78
2022/09/02 09:37:52;;;;;;;3.08;1.20;;;21.40;74.60;;;;;;5040438;28;20474;-79
2022/09/02 09:40:26;;;;;;;2.33;1.52;;;21.40;74.80;;;;;;5047172;28;20060;-80
2022/09/02 09:42:57;;;;;;;1.23;1.13;;;21.50;74.30;;;;;;5042720;28;20041;-78
2022/09/02 09:46:18;;;;;;;2.47;1.67;;;21.70;73.70;;;;;;5042681;28;20084;-78
2022/09/02 09:48:50;;;;;;;2.20;1.23;;;21.90;73.70;;;;;;5002500;28;20026;-78
2022/09/02 09:51:16;;;;;;;1.88;1.20;;;21.90;73.30;;;;;;5001380;28;20193;-79
2022/09/02 09:53:42;;;;;;;2.65;1.10;;;22.00;73.00;;;;;;5025030;28;20033;-80
2022/09/02 09:56:14;;;;;;;2.55;1.25;;;22.00;73.40;;;;;;5040883;28;20403;-78
2022/09/02 09:58:40;;;;;;;1.98;1.30;;;21.90;72.00;;;;;;5048480;28;20026;-78
2022/09/02 10:01:23;;;;;;;1.67;1.30;;;21.90;73.00;;;;;;5036532;28;20538;-79
2022/09/02 10:04:02;;;;;;;0.90;0.75;;;21.90;72.90;;;;;;5037264;28;20026;-79
2022/09/02 10:06:31;;;;;;;2.35;1.20;;;21.90;72.00;;;;;;5041419;28;20041;-79
2022/09/02 10:08:59;;;;;;;2.90;1.25;;;21.90;72.60;;;;;;5039444;28;20391;-78
2022/09/02 10:11:28;;;;;;;1.77;1.30;;;21.90;73.00;;;;;;5041290;28;20060;-79
2022/09/02 10:13:59;;;;;;;2.15;1.40;;;22.00;71.10;;;;;;5037419;28;20033;-78
2022/09/02 10:16:37;;;;;;;2.83;1.55;;;22.00;70.90;;;;;;5057629;28;20033;-78
2022/09/02 10:19:30;;;;;;;1.20;1.10;;;22.10;70.30;;;;;;5042799;28;20485;-78
2022/09/02 10:22:18;;;;;;;1.27;1.17;;;22.00;70.70;;;;;;5045554;28;20500;-78
2022/09/02 10:25:02;;;;;;;1.27;1.17;;;22.00;71.50;;;;;;5051143;28;20083;-78
2022/09/02 10:27:30;;;;;;;;;;;21.90;71.80;;;;;;5030518;28;20521;-78
2022/09/02 10:30:05;;;;;;;1.48;1.20;;;21.90;71.80;;;;;;5034344;28;19940;-78
2022/09/02 10:32:33;;;;;;;2.17;1.45;;;21.90;72.10;;;;;;5051975;28;20053;-78
2022/09/02 10:35:22;;;;;;;1.63;1.20;;;21.90;71.70;;;;;;5041305;28;20087;-78
2022/09/02 10:38:08;;;;;;;1.52;1.02;;;22.00;71.80;;;;;;5031019;28;20117;-78
2022/09/02 10:48:16;;;;;;;4.40;0.90;;;22.20;69.20;;;;;;5025379;28;20038;-78
2022/09/02 10:50:52;;;;;;;3.17;1.10;;;22.30;69.10;;;;;;5023525;28;20029;-78
2022/09/02 10:53:36;;;;;;;1.10;0.88;;;22.30;67.50;;;;;;5038080;28;20018;-78
2022/09/02 10:56:10;;;;;;;5.07;1.05;;;22.40;68.20;;;;;;5033147;28;20742;-78
2022/09/02 10:58:44;;;;;;;1.48;1.20;;;22.40;67.60;;;;;;5034989;28;20036;-78
2022/09/02 11:01:38;;;;;;;3.13;1.20;;;22.50;66.90;;;;;;5043169;28;20401;-78
2022/09/02 11:04:27;;;;;;;3.23;1.17;;;22.40;66.10;;;;;;5043260;28;20033;-78
2022/09/02 11:06:56;;;;;;;2.75;1.30;;;22.30;67.00;;;;;;5042200;28;20029;-78
2022/09/02 11:09:36;;;;;;;2.65;0.98;;;22.30;66.80;;;;;;5045793;28;20029;-78
2022/09/02 11:12:11;;;;;;;1.83;1.00;;;22.30;66.80;;;;;;5037586;28;20100;-78
2022/09/02 11:14:47;;;;;;;1.10;1.00;;;22.20;67.20;;;;;;5034733;28;20021;-78
2022/09/02 11:17:23;;;;;;;1.55;1.20;;;22.20;67.50;;;;;;5034269;28;20060;-79
2022/09/02 11:19:51;;;;;;;2.50;1.15;;;22.10;67.70;;;;;;5036467;28;20091;-78
2022/09/02 11:22:44;;;;;;;1.42;1.10;;;22.10;67.80;;;;;;5034970;28;20025;-78
2022/09/02 11:25:28;;;;;;;1.60;1.13;;;22.10;68.10;;;;;;5035119;28;20132;-79
2022/09/02 11:28:10;;;;;;;1.10;0.80;;;22.10;67.00;;;;;;5043997;28;20092;-78
2022/09/02 11:30:52;;;;;;;1.27;0.98;;;22.10;67.90;;;;;;5043827;28;20032;-79
2022/09/02 11:33:44;;;;;;;2.55;1.17;;;22.00;68.00;;;;;;5038036;28;20033;-78
2022/09/02 11:36:10;;;;;;;1.00;0.90;;;21.90;68.00;;;;;;5030638;28;20128;-78
2022/09/02 11:38:44;;;;;;;1.17;0.80;;;22.10;68.10;;;;;;5038343;28;20482;-78
2022/09/02 11:41:44;;;;;;;1.48;1.05;;;22.10;66.20;;;;;;5032998;28;20509;-78
2022/09/02 11:44:40;;;;;;;1.65;1.15;;;22.10;65.50;;;;;;5036190;28;20050;-77
2022/09/02 11:47:09;;;;;;;3.65;1.30;;;22.00;66.40;;;;;;5033184;28;20464;-78
2022/09/02 11:50:09;;;;;;;2.30;1.33;;;22.00;66.90;;;;;;5054250;28;20046;-77
2022/09/02 11:52:41;;;;;;;1.85;1.30;;;22.10;65.40;;;;;;5061005;28;20423;-78
2022/09/02 11:55:14;;;;;;;2.28;1.27;;;22.20;66.00;;;;;;5033243;28;20124;-78
2022/09/02 11:57:40;;;;;;;1.17;0.90;;;22.30;65.30;;;;;;5036070;28;20098;-78
2022/09/02 12:00:29;;;;;;;3.63;1.45;;;22.30;66.80;;;;;;5051223;28;20061;-79
2022/09/02 12:03:08;;;;;;;2.83;1.40;;;22.50;66.20;;;;;;5037614;28;20482;-79
2022/09/02 12:05:34;;;;;;;1.63;1.10;;;22.40;66.40;;;;;;5059094;28;20041;-78
2022/09/02 12:08:04;;;;;;;1.75;1.15;;;22.50;66.40;;;;;;5039557;28;20056;-78
2022/09/02 12:10:42;;;;;;;1.58;0.70;;;22.50;65.70;;;;;;5031394;28;20092;-78
2022/09/02 12:13:39;;;;;;;1.88;1.60;;;22.40;66.00;;;;;;5036962;28;20033;-78
2022/09/02 12:16:14;;;;;;;4.28;1.30;;;22.40;66.00;;;;;;5056240;28;20037;-79
2022/09/02 12:18:58;;;;;;;1.67;1.02;;;22.50;65.10;;;;;;5034995;28;20099;-79
2022/09/02 12:21:25;;;;;;;1.90;1.33;;;22.60;65.20;;;;;;5035116;28;20040;-78
2022/09/02 12:23:54;;;;;;;1.60;1.20;;;22.60;67.00;;;;;;5037029;28;20398;-79
2022/09/02 12:26:21;;;;;;;1.95;1.25;;;22.60;67.20;;;;;;5033293;28;20467;-78
2022/09/02 12:28:48;;;;;;;2.70;1.00;;;22.50;67.00;;;;;;5050889;28;20049;-78
2022/09/02 12:31:39;;;;;;;2.08;1.02;;;22.50;66.60;;;;;;5060249;28;20120;-78
2022/09/02 12:34:23;;;;;;;2.60;1.10;;;22.60;66.70;;;;;;5032740;28;20033;-78
2022/09/02 12:36:52;;;;;;;3.05;1.33;;;22.50;66.90;;;;;;5030506;28;20060;-79
2022/09/02 12:39:23;;;;;;;4.35;1.20;;;22.40;65.80;;;;;;5030278;28;20104;-78
2022/09/02 12:41:54;;;;;;;7.85;1.67;;;22.30;64.80;;;;;;5032762;28;20378;-78
2022/09/02 12:44:26;;;;;;;1.38;1.27;;;22.30;66.70;;;;;;5031774;28;20063;-79
2022/09/02 12:47:01;;;;;;;3.72;1.20;;;22.40;66.20;;;;;;5033459;28;20097;-78
2022/09/02 12:49:33;;;;;;;2.50;0.93;;;22.50;65.90;;;;;;5035357;28;20036;-78
2022/09/02 12:52:02;;;;;;;1.83;1.33;;;22.80;65.00;;;;;;5032367;28;20018;-78
2022/09/02 12:54:50;;;;;;;1.90;1.08;;;22.90;65.20;;;;;;5045788;28;20026;-77
2022/09/02 12:57:17;;;;;;;2.50;1.05;;;23.10;65.30;;;;;;5032149;28;20030;-79
2022/09/02 12:59:46;;;;;;;1.75;0.85;;;23.10;65.20;;;;;;5031779;28;20021;-77
2022/09/02 13:02:15;;;;;;;1.40;1.00;;;23.10;65.40;;;;;;5037291;28;20025;-78
2022/09/02 13:04:41;;;;;;;2.90;1.27;;;23.10;66.20;;;;;;5027386;28;20013;-78
2022/09/02 13:07:25;;;;;;;4.85;1.30;;;23.10;65.90;;;;;;5030131;28;20040;-78
2022/09/02 13:10:20;;;;;;;1.70;1.15;;;23.10;66.40;;;;;;5037499;28;20052;-79
2022/09/02 13:13:24;;;;;;;4.60;1.25;;;23.10;65.20;;;;;;5031509;28;20083;-78
2022/09/02 13:15:54;;;;;;;3.05;1.38;;;23.10;66.10;;;;;;5045069;28;20033;-78